Time;durP1;ratioP1;P1;durP2;ratioP2;P2;SDS_P1;SDS_P2;PMS_P1;PMS_P2;Temp;Humidity;BMP_temperature;BMP_pressure;BME280_temperature;BME280_humidity;BME280_pressure;Samples;Min_cycle;Max_cycle;Signal;HPM_P1;HPM_P2
2022/06/29 00:00:29;;;;;;;3.45;2.80;;;;;;;19.56;63.68;100799.00;5023168;28;20072;-73
2022/06/29 00:02:55;;;;;;;3.22;2.70;;;;;;;19.55;64.03;100795.44;5020115;28;20034;-73
2022/06/29 00:05:23;;;;;;;3.00;2.45;;;;;;;19.57;63.73;100793.59;5021711;28;20084;-73
2022/06/29 00:07:49;;;;;;;3.67;2.60;;;;;;;19.58;63.70;100783.75;5019257;28;20100;-74
2022/06/29 00:10:16;;;;;;;2.88;2.22;;;;;;;19.59;63.89;100785.47;5022790;28;20043;-73
2022/06/29 00:12:43;;;;;;;3.30;2.50;;;;;;;19.59;63.85;100786.34;5021797;28;20442;-73
2022/06/29 00:15:09;;;;;;;3.30;2.42;;;;;;;19.53;64.91;100781.25;5023470;28;20038;-73
2022/06/29 00:17:35;;;;;;;3.53;2.25;;;;;;;19.40;64.51;100785.34;5021269;28;20034;-73
2022/06/29 00:20:04;;;;;;;8.82;8.13;;;;;;;19.35;64.79;100777.47;5021897;28;20040;-72
2022/06/29 00:22:30;;;;;;;3.30;2.50;;;;;;;19.26;64.98;100772.50;5018974;28;20065;-73
2022/06/29 00:24:55;;;;;;;151.13;14.45;;;;;;;19.22;65.22;100777.06;5019414;28;20069;-73
2022/06/29 00:27:21;;;;;;;3.85;2.35;;;;;;;19.19;65.11;100765.63;5022079;28;20037;-73
2022/06/29 00:29:47;;;;;;;3.50;2.13;;;;;;;19.17;65.58;100757.63;5020567;28;20034;-73
2022/06/29 00:32:13;;;;;;;3.45;2.47;;;;;;;19.19;65.64;100753.13;5024090;28;20124;-73
2022/06/29 00:34:38;;;;;;;3.47;3.17;;;;;;;19.14;67.19;100747.06;5022007;28;20037;-74
2022/06/29 00:37:04;;;;;;;3.67;2.63;;;;;;;19.07;67.65;100744.69;5020446;28;20065;-73
2022/06/29 00:39:31;;;;;;;3.17;2.80;;;;;;;19.12;67.35;100738.22;5018646;28;20045;-73
2022/06/29 00:41:56;;;;;;;3.30;2.25;;;;;;;19.14;67.82;100731.00;5027186;28;20029;-73
2022/06/29 00:44:21;;;;;;;3.92;2.45;;;;;;;19.17;67.34;100735.38;5027397;28;20033;-73
2022/06/29 00:46:58;;;;;;;3.25;2.13;;;;;;;19.25;67.01;100727.91;5020948;28;20034;-73
2022/06/29 00:49:26;;;;;;;3.15;2.05;;;;;;;19.35;65.97;100729.31;5020673;28;20124;-73
2022/06/29 00:52:01;;;;;;;2.63;1.85;;;;;;;19.43;65.34;100732.53;5009489;28;20486;-73
2022/06/29 00:54:31;;;;;;;2.65;1.85;;;;;;;19.54;64.95;100740.13;5019365;28;20034;-73
2022/06/29 00:56:58;;;;;;;3.40;2.00;;;;;;;19.65;64.85;100737.06;5002975;28;20496;-73
2022/06/29 00:59:24;;;;;;;4.57;3.88;;;;;;;19.77;63.98;100728.53;5025532;28;20583;-74
2022/06/29 01:01:49;;;;;;;4.65;4.15;;;;;;;19.88;63.96;100738.81;5024356;28;20041;-75
2022/06/29 01:04:15;;;;;;;4.25;2.70;;;;;;;19.96;63.11;100747.38;5024057;28;20402;-74
2022/06/29 01:06:40;;;;;;;5.45;4.40;;;;;;;20.00;63.34;100738.31;5026140;28;20492;-73
2022/06/29 01:09:06;;;;;;;4.40;4.00;;;;;;;20.05;63.10;100747.03;5020678;28;20034;-74
2022/06/29 01:11:32;;;;;;;4.03;2.80;;;;;;;20.08;63.04;100752.25;5024268;28;20102;-74
2022/06/29 01:13:58;;;;;;;4.18;3.17;;;;;;;20.10;62.88;100760.22;5023910;28;20034;-74
2022/06/29 01:16:24;;;;;;;3.67;3.17;;;;;;;20.11;62.78;100760.16;5024561;28;20034;-74
2022/06/29 01:18:49;;;;;;;5.05;4.30;;;;;;;20.13;62.49;100760.09;5025126;28;20036;-74
2022/06/29 01:21:21;;;;;;;3.67;3.20;;;;;;;20.18;62.69;100765.28;5022710;28;20034;-74
2022/06/29 01:23:46;;;;;;;5.00;3.00;;;;;;;20.20;62.14;100758.00;5023047;28;20113;-74
2022/06/29 01:26:13;;;;;;;2.72;2.35;;;;;;;20.23;62.19;100771.31;5025105;28;20555;-74
2022/06/29 01:28:46;;;;;;;3.75;2.10;;;;;;;20.25;62.39;100766.72;5024806;28;20091;-74
2022/06/29 01:31:18;;;;;;;5.40;2.63;;;;;;;20.23;62.39;100765.94;5021952;28;20420;-74
2022/06/29 01:33:45;;;;;;;4.53;2.80;;;;;;;20.17;62.45;100760.81;5024811;28;20033;-74
2022/06/29 01:36:11;;;;;;;4.63;3.42;;;;;;;20.13;62.56;100752.94;5019991;28;20081;-74
2022/06/29 01:38:38;;;;;;;6.13;4.38;;;;;;;20.13;62.84;100754.75;5023722;28;20030;-74
2022/06/29 01:41:04;;;;;;;4.43;3.92;;;;;;;20.17;62.68;100755.47;5022221;28;20506;-74
2022/06/29 01:43:31;;;;;;;3.45;2.55;;;;;;;20.20;62.79;100761.59;5025563;28;20094;-74
2022/06/29 01:45:56;;;;;;;3.42;2.47;;;;;;;20.20;62.68;100750.88;5023308;28;20065;-74
2022/06/29 01:48:21;;;;;;;4.15;2.90;;;;;;;20.21;62.16;100759.78;5024111;28;20513;-74
2022/06/29 01:50:48;;;;;;;4.03;2.40;;;;;;;20.21;62.63;100762.47;5024499;28;20086;-74
2022/06/29 01:53:13;;;;;;;3.88;3.30;;;;;;;20.21;62.93;100762.47;5022164;28;20034;-74
2022/06/29 01:55:39;;;;;;;4.97;4.32;;;;;;;20.22;62.62;100753.47;5025193;28;20603;-74
2022/06/29 01:58:04;;;;;;;5.10;4.40;;;;;;;20.23;62.92;100752.56;5022380;28;20500;-74
2022/06/29 02:00:29;;;;;;;5.45;3.55;;;;;;;20.24;62.90;100746.25;5024669;28;20119;-73
2022/06/29 02:02:55;;;;;;;3.42;3.13;;;;;;;20.27;62.68;100755.00;5022878;28;20080;-74
2022/06/29 02:05:20;;;;;;;3.40;3.05;;;;;;;20.27;63.20;100754.16;5023502;28;20038;-74
2022/06/29 02:07:45;;;;;;;3.95;2.97;;;;;;;20.30;63.26;100756.69;5024464;28;20053;-74
2022/06/29 02:10:11;;;;;;;4.97;2.70;;;;;;;20.33;63.30;100764.59;5020422;28;20041;-73
2022/06/29 02:12:36;;;;;;;5.40;2.80;;;;;;;20.37;63.28;100760.84;5024723;28;20049;-74
2022/06/29 02:15:01;;;;;;;6.63;3.20;;;;;;;20.38;63.61;100759.91;5020893;28;20053;-74
2022/06/29 02:17:27;;;;;;;3.88;3.47;;;;;;;20.40;63.31;100758.03;5024174;28;20034;-74
2022/06/29 02:19:52;;;;;;;3.33;2.55;;;;;;;20.41;63.21;100751.75;5023419;28;20123;-74
2022/06/29 02:22:17;;;;;;;4.05;2.80;;;;;;;20.40;63.78;100747.31;5022421;28;20156;-74
2022/06/29 02:24:43;;;;;;;4.00;3.05;;;;;;;20.41;63.58;100748.19;5024078;28;20045;-74
2022/06/29 02:27:09;;;;;;;4.53;3.70;;;;;;;20.43;63.79;100751.66;5021578;28;20045;-73
2022/06/29 02:29:34;;;;;;;4.13;3.20;;;;;;;20.45;63.69;100745.31;5024754;28;20046;-74
2022/06/29 02:34:43;;;;;;;4.85;4.35;;;;;;;20.48;63.50;100738.94;5021481;28;20034;-74
2022/06/29 02:37:13;;;;;;;3.30;2.80;;;;;;;20.51;63.51;100738.78;5027590;28;20037;-74
2022/06/29 02:39:38;;;;;;;4.90;2.67;;;;;;;20.55;63.36;100740.44;5024091;28;20424;-74
2022/06/29 02:42:05;;;;;;;6.35;4.13;;;;;;;20.57;63.69;100723.34;5017650;28;20048;-74
2022/06/29 02:44:31;;;;;;;3.50;3.10;;;;;;;20.61;63.54;100731.25;5021581;28;20500;-74
2022/06/29 02:46:56;;;;;;;4.28;3.88;;;;;;;20.64;63.39;100734.66;5022777;28;20116;-75
2022/06/29 02:49:21;;;;;;;6.40;4.38;;;;;;;20.66;63.65;100732.78;5030015;28;20025;-74
2022/06/29 02:51:47;;;;;;;6.53;4.70;;;;;;;20.69;64.02;100734.47;5023147;28;20041;-74
2022/06/29 02:54:12;;;;;;;8.45;7.18;;;;;;;20.71;64.04;100735.28;5022475;28;20033;-74
2022/06/29 02:56:38;;;;;;;9.15;7.28;;;;;;;20.75;64.11;100723.44;5023126;28;20172;-74
2022/06/29 02:59:03;;;;;;;8.35;7.55;;;;;;;20.78;64.64;100726.88;5027709;28;20480;-73
2022/06/29 03:01:28;;;;;;;7.70;6.65;;;;;;;20.81;64.56;100715.16;5011006;28;20085;-74
2022/06/29 03:03:54;;;;;;;8.68;7.80;;;;;;;20.86;64.05;100729.22;5024208;28;20045;-74
2022/06/29 03:06:19;;;;;;;6.93;6.22;;;;;;;20.86;64.40;100721.16;5017079;28;20037;-74
2022/06/29 03:08:44;;;;;;;7.80;6.97;;;;;;;20.92;64.09;100725.38;5020206;28;20552;-74
2022/06/29 03:11:11;;;;;;;8.57;7.68;;;;;;;20.98;64.46;100733.13;5021551;28;20065;-74
2022/06/29 03:13:36;;;;;;;9.15;8.25;;;;;;;21.02;64.10;100719.50;5021648;28;20033;-73
2022/06/29 03:16:02;;;;;;;9.25;8.00;;;;;;;21.09;63.86;100725.47;5023645;28;20122;-74
2022/06/29 03:18:27;;;;;;;9.10;8.20;;;;;;;21.12;64.21;100725.34;5020618;28;20136;-74
2022/06/29 03:20:52;;;;;;;8.98;7.95;;;;;;;21.16;64.44;100726.03;5022889;28;20560;-74
2022/06/29 03:23:18;;;;;;;10.25;8.80;;;;;;;21.20;63.91;100722.28;5021325;28;20596;-74
2022/06/29 03:25:43;;;;;;;8.90;7.35;;;;;;;21.25;64.71;100720.25;5022002;28;20044;-74
2022/06/29 03:28:08;;;;;;;7.88;6.82;;;;;;;21.27;63.80;100721.03;5022498;28;20048;-74
2022/06/29 03:30:34;;;;;;;9.07;8.18;;;;;;;21.32;64.17;100721.69;5021182;28;20121;-74
2022/06/29 03:32:59;;;;;;;9.75;8.75;;;;;;;21.38;64.47;100716.06;5023101;28;20073;-74
2022/06/29 03:35:24;;;;;;;11.73;9.05;;;;;;;21.44;64.19;100714.91;5020263;28;20053;-74
2022/06/29 03:37:50;;;;;;;9.73;8.73;;;;;;;21.50;64.01;100724.47;5021454;28;20038;-74
2022/06/29 03:40:17;;;;;;;10.00;9.00;;;;;;;21.55;63.40;100722.44;5021868;28;20033;-74
2022/06/29 03:42:42;;;;;;;8.70;7.85;;;;;;;21.61;63.41;100732.88;5018769;28;20044;-74
2022/06/29 03:45:08;;;;;;;9.90;8.73;;;;;;;21.64;63.60;100733.59;5022704;28;20038;-74
2022/06/29 03:47:34;;;;;;;10.20;8.00;;;;;;;21.64;63.51;100730.91;5020138;28;20041;-74
2022/06/29 03:49:59;;;;;;;8.00;7.15;;;;;;;21.70;63.49;100735.13;5023539;28;20318;-74
2022/06/29 03:52:24;;;;;;;7.70;7.00;;;;;;;21.74;63.78;100725.94;5019994;28;20042;-74
2022/06/29 03:54:50;;;;;;;7.63;6.82;;;;;;;21.76;63.38;100724.06;5021850;28;20060;-74
2022/06/29 03:57:15;;;;;;;7.20;6.50;;;;;;;21.83;63.48;100721.94;5023598;28;20511;-73
2022/06/29 03:59:41;;;;;;;7.68;6.97;;;;;;;21.80;63.59;100716.72;5021132;28;20120;-74
2022/06/29 04:02:06;;;;;;;8.85;7.05;;;;;;;21.85;63.49;100715.56;5022643;28;20054;-74
2022/06/29 04:04:31;;;;;;;9.82;7.55;;;;;;;21.91;63.27;100714.38;5023207;28;20506;-74
2022/06/29 04:06:57;;;;;;;7.25;6.18;;;;;;;21.95;63.03;100723.13;5020127;28;20467;-74
2022/06/29 04:09:22;;;;;;;8.95;7.35;;;;;;;21.98;63.26;100720.28;5020511;28;20719;-74
2022/06/29 04:11:54;;;;;;;7.53;6.63;;;;;;;21.97;63.58;100730.16;5021141;28;20033;-74
2022/06/29 04:14:24;;;;;;;7.50;6.78;;;;;;;21.95;63.23;100737.44;5024552;28;20484;-74
2022/06/29 04:16:51;;;;;;;9.57;7.25;;;;;;;21.92;63.67;100726.84;5027759;28;20040;-74
2022/06/29 04:19:18;;;;;;;7.75;6.10;;;;;;;21.91;63.45;100729.63;5021172;28;20117;-74
2022/06/29 04:21:44;;;;;;;9.32;6.43;;;;;;;21.93;63.24;100730.41;5020492;28;20091;-74
2022/06/29 04:24:10;;;;;;;8.15;6.72;;;;;;;21.94;63.52;100718.72;5023361;28;20132;-73
2022/06/29 04:26:35;;;;;;;9.48;6.80;;;;;;;21.94;63.56;100721.41;5024713;28;20034;-73
2022/06/29 04:29:01;;;;;;;8.10;6.03;;;;;;;21.94;64.04;100719.59;5023310;28;20044;-73
2022/06/29 04:31:26;;;;;;;7.93;5.60;;;;;;;21.96;63.89;100712.31;5024449;28;20099;-73
2022/06/29 04:33:51;;;;;;;13.30;5.97;;;;;;;21.95;63.45;100710.56;5026951;28;20380;-73
2022/06/29 04:36:16;;;;;;;6.68;5.93;;;;;;;22.00;63.40;100704.97;5027678;28;20029;-73
2022/06/29 04:38:42;;;;;;;9.48;6.28;;;;;;;22.02;63.12;100697.69;5024724;28;20411;-73
2022/06/29 04:41:08;;;;;;;9.05;6.07;;;;;;;22.05;63.27;100697.53;5023390;28;20407;-73
2022/06/29 04:43:33;;;;;;;8.60;6.88;;;;;;;22.07;63.15;100703.72;5024675;28;20079;-74
2022/06/29 04:48:43;;;;;;;9.45;5.80;;;;;;;22.15;63.28;100701.50;5021120;28;20037;-75
2022/06/29 04:51:09;;;;;;;8.45;5.50;;;;;;;22.16;63.16;100705.03;5021326;28;20532;-74
2022/06/29 04:53:34;;;;;;;8.15;5.15;;;;;;;22.20;63.26;100710.22;5026486;28;20034;-74
2022/06/29 04:56:00;;;;;;;9.02;6.90;;;;;;;22.26;63.18;100698.28;5026339;28;20474;-74
2022/06/29 04:58:25;;;;;;;7.60;5.88;;;;;;;22.28;62.88;100713.38;5028706;28;20037;-74
2022/06/29 05:00:51;;;;;;;6.97;6.28;;;;;;;22.33;62.76;100707.78;5022868;28;20148;-74
2022/06/29 05:03:17;;;;;;;8.55;5.95;;;;;;;22.36;62.41;100704.91;5028243;28;20033;-74
2022/06/29 05:05:42;;;;;;;8.52;6.63;;;;;;;22.39;62.16;100699.38;5020403;28;20065;-74
2022/06/29 05:08:08;;;;;;;7.88;6.10;;;;;;;22.43;62.17;100697.41;5019487;28;20033;-74
2022/06/29 05:10:33;;;;;;;7.85;6.00;;;;;;;22.45;61.91;100707.13;5026526;28;20030;-74
2022/06/29 05:12:58;;;;;;;7.63;6.30;;;;;;;22.37;62.40;100714.72;5021228;28;20088;-74
2022/06/29 05:15:24;;;;;;;6.78;5.43;;;;;;;22.38;62.32;100711.09;5021674;28;20038;-74
2022/06/29 05:17:49;;;;;;;6.45;5.38;;;;;;;22.37;62.25;100717.41;5023067;28;20069;-74
2022/06/29 05:20:15;;;;;;;9.77;5.50;;;;;;;22.31;62.39;100710.53;5032762;28;20488;-74
2022/06/29 05:22:41;;;;;;;9.95;4.53;;;;;;;22.20;63.12;100725.50;5021189;28;20377;-74
2022/06/29 05:25:07;;;;;;;5.78;4.57;;;;;;;22.21;63.03;100719.16;5021335;28;20030;-74
2022/06/29 05:27:32;;;;;;;6.80;5.30;;;;;;;22.22;63.53;100720.91;5024725;28;20037;-74
2022/06/29 05:29:58;;;;;;;7.53;6.32;;;;;;;22.11;64.03;100716.03;5015701;28;20037;-74
2022/06/29 05:32:23;;;;;;;8.85;5.90;;;;;;;22.07;64.53;100720.69;5021485;28;20037;-74
2022/06/29 05:34:49;;;;;;;7.93;5.88;;;;;;;22.02;65.13;100732.63;5027914;28;20045;-74
2022/06/29 05:37:14;;;;;;;7.97;7.03;;;;;;;21.99;64.97;100727.41;5018799;28;20033;-74
2022/06/29 05:39:42;;;;;;;11.73;6.53;;;;;;;21.99;64.77;100722.91;5021575;28;20044;-74
2022/06/29 05:42:07;;;;;;;7.65;5.70;;;;;;;21.97;64.71;100714.06;5019801;28;20184;-74
2022/06/29 05:44:33;;;;;;;8.77;5.82;;;;;;;21.99;65.08;100716.69;5023343;28;20128;-74
2022/06/29 05:46:58;;;;;;;9.50;6.68;;;;;;;21.96;64.86;100723.06;5024239;28;20037;-74
2022/06/29 05:49:24;;;;;;;11.38;7.50;;;;;;;21.97;64.44;100730.16;5030998;28;20044;-74
2022/06/29 05:51:49;;;;;;;7.10;5.47;;;;;;;21.89;65.59;100727.88;5029999;28;20048;-74
2022/06/29 05:54:15;;;;;;;6.95;5.72;;;;;;;21.85;65.10;100726.31;5027012;28;20566;-74
2022/06/29 05:56:40;;;;;;;7.95;6.10;;;;;;;21.84;65.76;100724.53;5023494;28;20088;-74
2022/06/29 05:59:06;;;;;;;16.70;5.82;;;;;;;21.87;65.87;100728.91;5027048;28;20412;-74
2022/06/29 06:01:31;;;;;;;6.38;5.68;;;;;;;21.84;65.95;100729.91;5023730;28;20060;-74
2022/06/29 06:03:57;;;;;;;7.15;5.97;;;;;;;21.85;66.12;100729.00;5026555;28;20086;-74
2022/06/29 06:06:22;;;;;;;7.25;6.55;;;;;;;21.86;66.47;100727.16;5028986;28;20408;-74
2022/06/29 06:08:47;;;;;;;7.25;6.00;;;;;;;21.81;66.92;100730.06;5026213;28;20483;-74
2022/06/29 06:11:13;;;;;;;7.15;5.68;;;;;;;21.77;66.39;100731.19;5023886;28;20998;-74
2022/06/29 06:13:38;;;;;;;6.38;5.65;;;;;;;21.68;66.49;100734.31;5023304;28;20037;-75
2022/06/29 06:16:04;;;;;;;7.18;4.43;;;;;;;21.57;66.59;100728.59;5025688;28;20068;-74
2022/06/29 06:18:29;;;;;;;4.95;4.25;;;;;;;21.49;67.60;100733.47;5020801;28;20044;-74
2022/06/29 06:20:55;;;;;;;7.28;4.95;;;;;;;21.40;67.48;100724.91;5025105;28;20064;-74
2022/06/29 06:23:20;;;;;;;6.43;4.95;;;;;;;21.30;67.99;100736.13;5023642;28;20034;-75
2022/06/29 06:25:46;;;;;;;5.63;4.55;;;;;;;21.23;67.46;100731.06;5023879;28;20042;-75
2022/06/29 06:28:11;;;;;;;6.38;4.80;;;;;;;21.21;67.14;100734.75;5024317;28;20041;-74
2022/06/29 06:30:37;;;;;;;7.05;5.00;;;;;;;21.20;67.75;100733.03;5021910;28;20713;-74
2022/06/29 06:33:02;;;;;;;6.53;4.53;;;;;;;21.28;66.85;100735.34;5022431;28;20045;-74
2022/06/29 06:35:27;;;;;;;6.25;5.03;;;;;;;21.38;66.65;100734.00;5021722;28;20136;-74
2022/06/29 06:37:53;;;;;;;6.72;4.43;;;;;;;21.30;66.19;100744.16;5024622;28;20049;-74
2022/06/29 06:43:02;;;;;;;5.20;3.88;;;;;;;21.42;66.27;100739.13;5024161;28;20708;-74
2022/06/29 06:45:28;;;;;;;6.20;4.93;;;;;;;21.42;66.18;100743.63;5024540;28;20064;-74
2022/06/29 06:47:54;;;;;;;6.30;4.40;;;;;;;21.42;65.61;100747.19;5025679;28;20057;-74
2022/06/29 06:50:19;;;;;;;5.90;3.97;;;;;;;21.37;65.85;100751.88;5026119;28;20029;-75
2022/06/29 06:52:45;;;;;;;8.75;4.72;;;;;;;21.33;65.82;100744.91;5025677;28;20116;-74
2022/06/29 06:55:10;;;;;;;5.95;4.53;;;;;;;21.35;65.48;100739.47;5023905;28;20033;-74
2022/06/29 06:57:35;;;;;;;7.15;5.07;;;;;;;21.39;65.08;100744.66;5024201;28;20038;-74
2022/06/29 07:00:01;;;;;;;8.68;5.50;;;;;;;21.43;64.94;100745.38;5024586;28;20053;-75
2022/06/29 07:02:26;;;;;;;8.23;5.93;;;;;;;21.47;64.84;100741.59;5023165;28;20079;-74
2022/06/29 07:04:52;;;;;;;6.72;4.68;;;;;;;21.44;65.39;100741.75;5025720;28;20038;-74
2022/06/29 07:07:17;;;;;;;6.20;5.10;;;;;;;21.40;64.95;100748.19;5022248;28;20381;-74
2022/06/29 07:09:42;;;;;;;5.00;4.03;;;;;;;21.38;65.76;100745.59;5023253;28;20045;-75
2022/06/29 07:12:08;;;;;;;7.80;5.97;;;;;;;21.36;65.19;100743.91;5020706;28;20034;-74
2022/06/29 07:14:33;;;;;;;6.57;4.53;;;;;;;21.37;65.18;100751.00;5023984;28;20049;-74
2022/06/29 07:16:59;;;;;;;5.65;4.75;;;;;;;21.32;65.52;100740.47;5022671;28;20033;-74
2022/06/29 07:19:24;;;;;;;6.03;4.30;;;;;;;21.39;64.93;100747.34;5023702;28;20096;-75
2022/06/29 07:21:49;;;;;;;5.28;4.07;;;;;;;21.45;64.76;100738.97;5021266;28;20062;-74
2022/06/29 07:24:15;;;;;;;5.53;3.83;;;;;;;21.44;65.42;100731.88;5020834;28;20460;-74
2022/06/29 07:26:40;;;;;;;5.22;3.70;;;;;;;21.46;65.19;100734.50;5025979;28;20059;-74
2022/06/29 07:29:06;;;;;;;5.43;3.70;;;;;;;21.45;65.36;100733.59;5025508;28;20061;-74
2022/06/29 07:31:31;;;;;;;4.32;3.88;;;;;;;21.43;65.50;100735.53;5021569;28;20096;-74
2022/06/29 07:33:56;;;;;;;6.28;4.45;;;;;;;21.45;66.40;100738.97;5026230;28;20033;-74
2022/06/29 07:36:22;;;;;;;5.57;3.80;;;;;;;21.49;66.08;100744.22;5025843;28;20029;-74
2022/06/29 07:38:47;;;;;;;6.03;4.38;;;;;;;21.57;65.85;100736.66;5023263;28;20033;-74
2022/06/29 07:41:12;;;;;;;5.97;4.47;;;;;;;21.61;65.72;100739.13;5020954;28;20041;-74
2022/06/29 07:43:38;;;;;;;5.70;4.55;;;;;;;21.74;65.61;100733.13;5022600;28;20049;-74
2022/06/29 07:46:03;;;;;;;6.60;4.22;;;;;;;21.89;65.43;100737.75;5020954;28;20061;-74
2022/06/29 07:48:28;;;;;;;5.63;4.20;;;;;;;21.95;65.42;100740.13;5022454;28;20065;-74
2022/06/29 07:50:54;;;;;;;6.78;4.45;;;;;;;22.03;64.80;100737.94;5020151;28;20060;-74
2022/06/29 07:53:20;;;;;;;5.95;3.90;;;;;;;22.07;65.67;100734.13;5022055;28;20400;-74
2022/06/29 07:55:45;;;;;;;5.43;4.50;;;;;;;22.11;65.45;100729.47;5021801;28;20030;-75
2022/06/29 07:58:12;;;;;;;6.60;4.32;;;;;;;22.24;66.26;100733.31;5020784;28;20405;-74
2022/06/29 08:00:38;;;;;;;6.55;4.85;;;;;;;22.31;67.13;100726.66;5023256;28;20029;-74
2022/06/29 08:03:03;;;;;;;6.72;4.85;;;;;;;22.31;66.69;100723.97;5023090;28;20033;-74
2022/06/29 08:05:29;;;;;;;6.15;4.32;;;;;;;22.23;66.48;100730.69;5027238;28;20033;-74
2022/06/29 08:07:54;;;;;;;5.68;4.13;;;;;;;22.27;66.01;100727.78;5027248;28;20040;-75
2022/06/29 08:10:19;;;;;;;6.22;4.82;;;;;;;22.38;65.63;100734.44;5021673;28;20042;-74
2022/06/29 08:12:45;;;;;;;6.68;5.18;;;;;;;22.39;65.40;100741.53;5020181;28;20045;-74
2022/06/29 08:15:10;;;;;;;8.52;4.82;;;;;;;22.41;66.10;100740.50;5022570;28;20044;-74
2022/06/29 08:17:36;;;;;;;5.68;4.38;;;;;;;22.38;65.79;100740.66;5018799;28;20029;-74
2022/06/29 08:20:03;;;;;;;5.68;4.65;;;;;;;22.37;65.28;100744.28;5025125;28;20488;-74
2022/06/29 08:22:29;;;;;;;7.38;5.32;;;;;;;22.35;66.52;100742.63;5013215;28;20040;-74
2022/06/29 08:24:54;;;;;;;6.78;5.00;;;;;;;22.31;66.33;100752.69;5024946;28;20029;-74
2022/06/29 08:27:21;;;;;;;5.95;4.90;;;;;;;22.32;65.82;100749.03;5020694;28;20049;-74
2022/06/29 08:29:47;;;;;;;5.90;4.47;;;;;;;22.32;65.83;100757.09;5022715;28;20033;-74
2022/06/29 08:32:13;;;;;;;5.30;3.80;;;;;;;22.33;65.90;100752.63;5021348;28;20506;-74
2022/06/29 08:34:41;;;;;;;5.78;4.53;;;;;;;22.34;66.07;100748.97;5020628;28;20510;-74
2022/06/29 08:37:07;;;;;;;4.43;3.60;;;;;;;22.29;66.03;100747.38;5021835;28;20091;-75
2022/06/29 08:39:33;;;;;;;6.53;4.13;;;;;;;22.31;65.84;100745.47;5022095;28;20038;-74
2022/06/29 08:42:04;;;;;;;5.25;4.10;;;;;;;22.38;65.84;100735.28;5020577;28;20034;-74
2022/06/29 08:44:33;;;;;;;6.13;4.28;;;;;;;22.45;66.16;100736.72;5025886;28;20498;-74
2022/06/29 08:47:00;;;;;;;5.45;4.13;;;;;;;22.30;65.75;100738.38;5021887;28;20033;-74
2022/06/29 08:49:26;;;;;;;6.07;4.20;;;;;;;22.25;65.80;100736.88;5025633;28;20112;-74
2022/06/29 08:51:55;;;;;;;5.50;3.70;;;;;;;22.30;65.43;100733.00;5024262;28;20056;-75
2022/06/29 08:54:22;;;;;;;6.30;3.75;;;;;;;22.34;65.48;100738.22;5024635;28;20424;-75
2022/06/29 08:56:48;;;;;;;5.38;4.15;;;;;;;22.39;65.73;100738.84;5027471;28;20038;-74
2022/06/29 08:59:14;;;;;;;7.07;4.38;;;;;;;22.49;65.31;100737.41;5025177;28;20033;-74
2022/06/29 09:01:40;;;;;;;6.25;4.50;;;;;;;22.54;65.28;100733.53;5024214;28;20032;-74
2022/06/29 09:04:07;;;;;;;6.55;4.28;;;;;;;22.61;65.55;100730.50;5024698;28;20049;-74
2022/06/29 09:06:33;;;;;;;5.85;3.83;;;;;;;22.63;65.39;100734.84;5029743;28;20423;-74
2022/06/29 09:08:58;;;;;;;5.72;3.90;;;;;;;22.68;65.47;100726.53;5026015;28;20029;-74
2022/06/29 09:11:28;;;;;;;5.72;4.20;;;;;;;22.76;65.51;100730.56;5022109;28;20040;-74
2022/06/29 09:14:11;;;;;;;5.30;4.53;;;;;;;22.60;66.23;100732.34;5021729;28;20586;-74
2022/06/29 09:16:49;;;;;;;6.75;5.72;;;;;;;22.52;67.09;100734.56;5026146;28;20044;-75
2022/06/29 09:19:15;;;;;;;7.18;4.78;;;;;;;22.65;65.89;100737.47;5014960;28;20512;-74
2022/06/29 09:21:52;;;;;;;6.45;5.13;;;;;;;22.82;65.93;100725.78;5023224;28;20033;-74
2022/06/29 09:24:20;;;;;;;6.80;5.47;;;;;;;22.88;65.64;100722.78;5026633;28;20087;-74
2022/06/29 09:26:53;;;;;;;6.85;5.00;;;;;;;22.99;65.48;100720.41;5026236;28;20117;-74
2022/06/29 09:29:23;;;;;;;7.25;5.43;;;;;;;23.08;65.91;100722.59;5022859;28;20025;-75
2022/06/29 09:32:01;;;;;;;7.68;5.28;;;;;;;23.07;65.63;100720.00;5028199;28;20049;-74
2022/06/29 09:34:26;;;;;;;6.90;5.82;;;;;;;23.15;65.54;100725.81;5029275;28;20412;-75
2022/06/29 09:36:55;;;;;;;8.02;5.15;;;;;;;23.12;65.31;100716.09;5026683;28;20041;-74
2022/06/29 09:39:34;;;;;;;6.90;5.80;;;;;;;23.06;65.31;100719.13;5026144;28;20029;-74
2022/06/29 09:42:01;;;;;;;6.60;5.00;;;;;;;23.07;65.06;100720.84;5029876;28;20053;-75
2022/06/29 09:44:26;;;;;;;7.35;5.32;;;;;;;23.14;65.24;100716.00;5025094;28;20471;-75
2022/06/29 09:46:55;;;;;;;6.60;5.40;;;;;;;23.28;64.78;100715.22;5025038;28;20072;-75
2022/06/29 09:49:28;;;;;;;7.25;5.60;;;;;;;23.43;65.15;100708.97;5021701;28;20059;-75
2022/06/29 09:51:59;;;;;;;7.65;5.72;;;;;;;23.37;64.67;100714.69;5020585;28;20412;-75
2022/06/29 09:54:30;;;;;;;9.70;6.28;;;;;;;23.40;64.87;100709.16;5028824;28;20029;-75
2022/06/29 09:56:57;;;;;;;7.40;5.93;;;;;;;23.52;64.20;100707.56;5030621;28;20040;-75
2022/06/29 10:02:34;;;;;;;6.90;6.13;;;;;;;23.62;63.43;100708.78;5030801;28;20037;-75
2022/06/29 10:05:05;;;;;;;6.75;5.65;;;;;;;23.46;63.34;100702.56;5022573;28;20038;-75
2022/06/29 10:07:31;;;;;;;;;;;;;;;23.53;63.38;100710.19;5023644;28;20050;-76
2022/06/29 10:09:57;;;;;;;7.63;5.63;;;;;;;23.52;62.95;100705.75;5026860;28;19936;-75
2022/06/29 10:15:46;;;;;;;6.28;4.72;;;;;;;23.63;62.07;100711.41;5025182;28;20132;-75
2022/06/29 10:18:17;;;;;;;8.35;5.95;;;;;;;23.67;61.29;100711.22;5023544;28;20033;-75
2022/06/29 10:20:45;;;;;;;6.90;4.85;;;;;;;23.60;61.43;100706.16;5029205;28;20042;-75
2022/06/29 10:23:42;;;;;;;6.65;4.85;;;;;;;23.62;61.03;100698.88;5031097;28;20045;-75
2022/06/29 10:26:35;;;;;;;6.68;5.40;;;;;;;23.78;60.34;100700.72;5022409;28;20034;-75
2022/06/29 10:29:09;;;;;;;9.48;5.93;;;;;;;23.90;59.92;100701.84;5027120;28;20040;-75
2022/06/29 10:31:53;;;;;;;6.88;4.82;;;;;;;23.91;58.75;100696.34;5023956;28;20038;-75
2022/06/29 10:34:28;;;;;;;6.93;5.32;;;;;;;23.95;58.27;100697.91;5023990;28;20044;-75
2022/06/29 10:37:02;;;;;;;6.03;5.18;;;;;;;24.03;58.44;100689.34;5030561;28;20036;-74
2022/06/29 10:39:51;;;;;;;6.07;5.03;;;;;;;23.92;58.17;100679.22;5024568;28;20087;-75
2022/06/29 10:45:33;;;;;;;5.20;4.45;;;;;;;23.80;58.38;100679.94;5023358;28;20029;-75
2022/06/29 10:48:05;;;;;;;5.57;4.63;;;;;;;23.78;58.62;100674.63;5026008;28;20120;-75
2022/06/29 10:50:31;;;;;;;6.63;4.40;;;;;;;23.71;58.78;100669.66;5024754;28;20080;-75
2022/06/29 10:53:11;;;;;;;8.00;5.68;;;;;;;23.76;59.12;100662.19;5023223;28;20389;-75
2022/06/29 10:55:40;;;;;;;5.95;4.82;;;;;;;24.05;58.26;100657.75;5024299;28;20136;-75
2022/06/29 10:58:06;;;;;;;8.23;5.28;;;;;;;24.28;57.39;100664.47;5020313;28;20065;-75
2022/06/29 11:00:33;;;;;;;9.77;5.35;;;;;;;24.39;56.65;100655.69;5023157;28;20205;-76
2022/06/29 11:03:07;;;;;;;6.80;5.80;;;;;;;24.55;56.37;100659.25;5022093;28;20057;-75
2022/06/29 11:05:36;;;;;;;7.78;5.43;;;;;;;24.49;55.98;100668.56;5003154;28;20164;-75
2022/06/29 11:13:31;;;;;;;6.53;3.95;;;;;;;24.70;55.98;100644.75;5005461;28;20073;-76
2022/06/29 11:15:58;;;;;;;5.93;3.80;;;;;;;24.81;55.84;100652.19;5024676;28;20100;-75
2022/06/29 11:18:28;;;;;;;7.93;5.07;;;;;;;24.83;55.46;100649.38;5021026;28;20034;-75
2022/06/29 11:21:02;;;;;;;10.30;4.18;;;;;;;24.90;55.84;100657.00;5024374;28;20528;-75
2022/06/29 11:23:32;;;;;;;5.47;3.92;;;;;;;24.80;55.55;100655.84;5026010;28;20553;-75
2022/06/29 11:25:58;;;;;;;14.43;5.65;;;;;;;24.56;55.97;100657.41;5024928;28;20124;-75
2022/06/29 11:28:26;;;;;;;13.57;5.63;;;;;;;24.54;56.04;100654.78;5025305;28;20072;-75
2022/06/29 11:31:13;;;;;;;11.60;5.78;;;;;;;24.46;55.81;100657.97;5024075;28;20148;-76
2022/06/29 11:33:46;;;;;;;9.65;6.40;;;;;;;24.42;55.74;100650.16;5025368;28;20069;-76
2022/06/29 11:36:23;;;;;;;12.40;9.30;;;;;;;24.51;55.68;100656.81;5022261;28;20048;-75
2022/06/29 11:38:53;;;;;;;8.05;6.15;;;;;;;24.47;56.04;100657.03;5028860;28;20046;-75
2022/06/29 11:41:25;;;;;;;7.57;6.17;;;;;;;24.48;55.57;100652.47;5023482;28;20029;-75
2022/06/29 11:44:01;;;;;;;7.72;4.43;;;;;;;24.54;55.83;100667.41;5025905;28;20378;-75
2022/06/29 11:46:27;;;;;;;7.47;5.05;;;;;;;24.53;56.01;100653.06;5029425;28;20025;-75